Time;durP1;ratioP1;P1;durP2;ratioP2;P2;SDS_P1;SDS_P2;PMS_P1;PMS_P2;Temp;Humidity;BMP_temperature;BMP_pressure;BME280_temperature;BME280_humidity;BME280_pressure;Samples;Min_cycle;Max_cycle;Signal;HPM_P1;HPM_P2
2023/09/07 00:01:55;;;;;;;6.05;5.45;;;18.60;99.90;;;;;;4972772;28;20077;-74
2023/09/07 00:04:22;;;;;;;6.85;5.35;;;18.50;99.90;;;;;;5041736;28;20501;-73
2023/09/07 00:06:49;;;;;;;6.25;5.45;;;18.50;99.90;;;;;;4990241;28;20045;-74
2023/09/07 00:09:18;;;;;;;6.20;5.57;;;18.40;99.90;;;;;;5031698;28;20065;-74
2023/09/07 00:11:46;;;;;;;7.90;5.88;;;18.50;99.90;;;;;;4990123;28;20060;-74
2023/09/07 00:14:12;;;;;;;8.02;5.85;;;18.40;99.90;;;;;;5004443;28;20049;-74
2023/09/07 00:16:38;;;;;;;7.13;5.30;;;18.40;99.90;;;;;;5022267;28;20049;-74
2023/09/07 00:19:04;;;;;;;8.25;5.60;;;18.40;99.90;;;;;;4951876;28;20038;-74
2023/09/07 00:21:30;;;;;;;5.50;4.85;;;18.30;99.90;;;;;;4989021;28;20065;-74
2023/09/07 00:23:57;;;;;;;6.80;5.30;;;18.30;99.90;;;;;;4987819;28;20053;-73
2023/09/07 00:26:23;;;;;;;8.40;5.80;;;18.30;99.90;;;;;;4954753;28;20043;-74
2023/09/07 00:28:49;;;;;;;6.18;5.57;;;18.20;99.90;;;;;;4994867;28;20093;-74
2023/09/07 00:31:15;;;;;;;6.15;5.10;;;18.20;99.90;;;;;;4995839;28;20110;-74
2023/09/07 00:33:41;;;;;;;6.50;5.80;;;18.20;99.90;;;;;;5007248;28;20510;-74
2023/09/07 00:36:06;;;;;;;8.27;5.45;;;18.20;99.90;;;;;;5025863;28;20044;-73
2023/09/07 00:38:32;;;;;;;5.90;5.05;;;18.10;99.90;;;;;;4996840;28;20038;-73
2023/09/07 00:40:58;;;;;;;7.75;5.40;;;18.10;99.90;;;;;;5012451;28;20053;-73
2023/09/07 00:43:23;;;;;;;8.68;5.22;;;18.10;99.90;;;;;;4977282;28;20064;-72
2023/09/07 00:45:49;;;;;;;6.15;5.55;;;18.10;99.90;;;;;;5021464;28;20369;-74
2023/09/07 00:48:16;;;;;;;6.28;5.35;;;18.00;99.90;;;;;;5018067;28;20190;-73
2023/09/07 00:50:42;;;;;;;6.10;5.32;;;18.10;99.90;;;;;;5024015;28;20318;-73
2023/09/07 00:53:10;;;;;;;6.50;5.90;;;18.00;99.90;;;;;;5017197;28;20034;-73
2023/09/07 00:55:36;;;;;;;7.80;5.82;;;18.00;99.90;;;;;;4989129;28;20054;-73
2023/09/07 00:58:04;;;;;;;6.40;5.80;;;18.00;99.90;;;;;;5038517;28;20049;-72
2023/09/07 01:00:30;;;;;;;8.93;6.00;;;18.00;99.90;;;;;;5019088;28;20076;-73
2023/09/07 01:02:56;;;;;;;8.05;5.72;;;17.90;99.90;;;;;;5007587;28;20042;-73
2023/09/07 01:05:29;;;;;;;8.63;5.82;;;17.90;99.90;;;;;;5008033;28;20093;-73
2023/09/07 01:08:03;;;;;;;6.93;5.57;;;17.90;99.90;;;;;;4997681;28;20035;-72
2023/09/07 01:10:28;;;;;;;10.55;6.18;;;17.90;99.90;;;;;;4999568;28;20077;-73
2023/09/07 01:12:54;;;;;;;7.45;5.88;;;17.90;99.90;;;;;;4992510;28;20045;-73
2023/09/07 01:15:20;;;;;;;7.28;6.07;;;17.90;99.90;;;;;;5020163;28;20117;-73
2023/09/07 01:17:46;;;;;;;7.30;5.70;;;17.90;99.90;;;;;;5036121;28;20095;-73
2023/09/07 01:20:13;;;;;;;8.95;6.15;;;18.00;99.90;;;;;;5005752;28;20042;-72
2023/09/07 01:22:40;;;;;;;9.85;6.07;;;18.00;99.90;;;;;;4993161;28;20046;-74
2023/09/07 01:25:07;;;;;;;8.02;6.30;;;18.00;99.90;;;;;;5005791;28;20041;-73
2023/09/07 01:27:34;;;;;;;10.43;6.43;;;17.90;99.90;;;;;;5019737;28;20042;-73
2023/09/07 01:29:59;;;;;;;11.57;6.55;;;17.90;99.90;;;;;;5039757;28;20509;-73
2023/09/07 01:32:28;;;;;;;7.63;6.25;;;17.90;99.90;;;;;;4992252;28;20076;-72
2023/09/07 01:34:59;;;;;;;10.80;6.70;;;17.90;99.90;;;;;;4982940;28;20097;-73
2023/09/07 01:37:24;;;;;;;8.25;6.20;;;17.80;99.90;;;;;;5000533;28;20041;-72
2023/09/07 01:39:50;;;;;;;8.23;6.60;;;17.80;99.90;;;;;;4994118;28;20056;-73
2023/09/07 01:42:16;;;;;;;7.55;6.50;;;17.80;99.90;;;;;;4997145;28;20484;-73
2023/09/07 01:44:43;;;;;;;6.78;6.07;;;17.80;99.90;;;;;;5011727;28;20046;-73
2023/09/07 01:47:09;;;;;;;8.68;6.20;;;17.80;99.90;;;;;;5038733;28;20534;-73
2023/09/07 01:49:34;;;;;;;9.07;5.72;;;17.70;99.90;;;;;;5016082;28;20030;-72
2023/09/07 01:52:00;;;;;;;10.63;6.38;;;17.70;99.90;;;;;;4993576;28;20030;-73
2023/09/07 01:54:26;;;;;;;8.05;6.00;;;17.70;99.90;;;;;;4983218;28;20487;-73
2023/09/07 01:56:51;;;;;;;9.40;6.60;;;17.70;99.90;;;;;;4984333;28;20038;-72
2023/09/07 01:59:17;;;;;;;9.63;6.20;;;17.70;99.90;;;;;;4997559;28;20054;-73
2023/09/07 02:01:43;;;;;;;7.32;6.45;;;17.70;99.90;;;;;;4998819;28;20396;-73
2023/09/07 02:04:08;;;;;;;9.27;6.20;;;17.70;99.90;;;;;;4974478;28;20105;-73
2023/09/07 02:06:34;;;;;;;8.15;6.47;;;17.60;99.90;;;;;;5021251;28;20034;-73
2023/09/07 02:09:00;;;;;;;7.70;6.47;;;17.60;99.90;;;;;;4967873;28;20100;-73
2023/09/07 02:11:26;;;;;;;11.27;7.22;;;17.60;99.90;;;;;;4992721;28;20460;-73
2023/09/07 02:13:52;;;;;;;9.25;6.85;;;17.50;99.90;;;;;;5020594;28;20399;-73
2023/09/07 02:16:18;;;;;;;7.85;6.47;;;17.50;99.90;;;;;;4989821;28;20041;-73
2023/09/07 02:18:45;;;;;;;9.13;6.82;;;17.40;99.90;;;;;;5039600;28;20046;-73
2023/09/07 02:21:11;;;;;;;8.80;6.50;;;17.40;99.90;;;;;;5006045;28;20042;-73
2023/09/07 02:23:37;;;;;;;8.13;7.32;;;17.40;99.90;;;;;;5017558;28;20060;-73
2023/09/07 02:26:03;;;;;;;12.07;7.85;;;17.30;99.90;;;;;;5016415;28;20065;-73
2023/09/07 02:28:29;;;;;;;13.23;7.82;;;17.30;99.90;;;;;;5016694;28;20034;-73
2023/09/07 02:31:02;;;;;;;10.50;7.63;;;17.20;99.90;;;;;;5011857;28;20628;-73
2023/09/07 02:33:28;;;;;;;9.13;8.05;;;17.20;99.90;;;;;;5032706;28;20823;-73
2023/09/07 02:35:54;;;;;;;8.68;7.88;;;17.20;99.90;;;;;;5009062;28;20109;-74
2023/09/07 02:38:19;;;;;;;8.93;7.93;;;17.10;99.90;;;;;;5007926;28;20096;-74
2023/09/07 02:40:45;;;;;;;9.27;8.38;;;17.10;99.90;;;;;;5014867;28;20499;-74
2023/09/07 02:43:11;;;;;;;10.18;8.68;;;17.00;99.90;;;;;;5023709;28;20038;-74
2023/09/07 02:45:38;;;;;;;8.98;7.93;;;17.00;99.90;;;;;;4983996;28;20046;-73
2023/09/07 02:48:05;;;;;;;10.65;8.65;;;17.00;99.90;;;;;;4989871;28;20033;-74
2023/09/07 02:50:33;;;;;;;8.27;7.50;;;16.90;99.90;;;;;;5000745;28;20492;-74
2023/09/07 02:53:00;;;;;;;9.75;8.75;;;16.90;99.90;;;;;;5002578;28;20041;-73
2023/09/07 02:55:26;;;;;;;9.55;8.68;;;16.80;99.90;;;;;;5032292;28;20046;-74
2023/09/07 02:57:53;;;;;;;10.32;9.23;;;16.80;99.90;;;;;;4991898;28;20049;-74
2023/09/07 03:00:19;;;;;;;10.05;9.05;;;16.80;99.90;;;;;;5001418;28;20068;-74
2023/09/07 03:02:45;;;;;;;9.98;8.43;;;16.80;99.90;;;;;;5019051;28;20420;-74
2023/09/07 03:05:10;;;;;;;9.98;8.93;;;16.70;99.90;;;;;;4998384;28;20037;-74
2023/09/07 03:07:39;;;;;;;10.38;8.80;;;16.70;99.90;;;;;;5016297;28;20117;-74
2023/09/07 03:10:05;;;;;;;11.77;9.30;;;16.60;99.90;;;;;;5001546;28;20053;-74
2023/09/07 03:12:30;;;;;;;13.45;9.55;;;16.60;99.90;;;;;;4995656;28;20040;-74
2023/09/07 03:14:56;;;;;;;13.35;9.73;;;16.60;99.90;;;;;;5004288;28;20038;-74
2023/09/07 03:17:22;;;;;;;11.10;9.95;;;16.50;99.90;;;;;;4997837;28;20049;-74
2023/09/07 03:19:48;;;;;;;12.05;9.40;;;16.50;99.90;;;;;;4973159;28;20030;-74
2023/09/07 03:22:14;;;;;;;10.07;8.93;;;16.40;99.90;;;;;;5034815;28;20088;-74
2023/09/07 03:24:40;;;;;;;11.63;9.13;;;16.40;99.90;;;;;;5002235;28;20130;-74
2023/09/07 03:27:05;;;;;;;11.00;9.70;;;16.40;99.90;;;;;;4994161;28;20120;-74
2023/09/07 03:29:35;;;;;;;10.70;8.75;;;16.40;99.90;;;;;;4972681;28;20042;-74
2023/09/07 03:32:01;;;;;;;12.60;9.68;;;16.30;99.90;;;;;;4999294;28;20483;-74
2023/09/07 03:34:27;;;;;;;10.05;8.60;;;16.40;99.90;;;;;;5003150;28;20069;-74
2023/09/07 03:36:53;;;;;;;9.95;9.05;;;16.30;99.90;;;;;;4998816;28;20115;-73
2023/09/07 03:39:21;;;;;;;9.43;8.43;;;16.30;99.90;;;;;;5024231;28;20053;-74
2023/09/07 03:41:47;;;;;;;9.93;8.52;;;16.20;99.90;;;;;;5033892;28;20046;-74
2023/09/07 03:44:12;;;;;;;11.65;9.43;;;16.20;99.90;;;;;;4977959;28;20566;-74
2023/09/07 03:46:38;;;;;;;9.80;8.82;;;16.20;99.90;;;;;;4992473;28;20115;-74
2023/09/07 03:49:04;;;;;;;11.80;8.63;;;16.20;99.90;;;;;;5027065;28;20034;-74
2023/09/07 03:51:30;;;;;;;10.77;9.27;;;16.20;99.90;;;;;;4977089;28;20096;-74
2023/09/07 03:53:56;;;;;;;10.30;8.77;;;16.10;99.90;;;;;;4994642;28;20038;-74
2023/09/07 03:56:21;;;;;;;9.82;8.73;;;16.10;99.90;;;;;;4986755;28;20049;-74
2023/09/07 03:58:47;;;;;;;9.20;8.30;;;16.10;99.90;;;;;;5011804;28;20038;-74
2023/09/07 04:01:13;;;;;;;13.15;9.38;;;15.90;99.90;;;;;;4978732;28;20514;-74
2023/09/07 04:03:42;;;;;;;9.40;8.55;;;16.10;99.90;;;;;;4989963;28;20488;-74
2023/09/07 04:06:08;;;;;;;10.25;8.55;;;16.10;99.90;;;;;;5022636;28;20069;-74
2023/09/07 04:08:35;;;;;;;9.82;8.73;;;16.10;99.90;;;;;;4996375;28;20042;-74
2023/09/07 04:11:07;;;;;;;10.15;9.15;;;16.10;99.90;;;;;;5004978;28;20053;-74
2023/09/07 04:13:33;;;;;;;10.55;8.63;;;16.00;99.90;;;;;;5006812;28;20595;-74
2023/09/07 04:15:58;;;;;;;10.73;9.65;;;16.00;99.90;;;;;;4994252;28;20038;-74
2023/09/07 04:18:24;;;;;;;10.15;8.80;;;16.00;99.90;;;;;;4980275;28;20130;-74
2023/09/07 04:20:50;;;;;;;10.23;8.52;;;16.00;99.90;;;;;;5033204;28;20083;-74
2023/09/07 04:23:16;;;;;;;10.13;9.05;;;15.90;99.90;;;;;;4990575;28;20457;-74
2023/09/07 04:25:42;;;;;;;10.40;8.82;;;16.00;99.90;;;;;;5025436;28;20155;-74
2023/09/07 04:28:07;;;;;;;10.20;8.90;;;15.90;99.90;;;;;;5029025;28;20156;-74
2023/09/07 04:30:37;;;;;;;11.75;8.85;;;15.90;99.90;;;;;;4994578;28;20496;-74
2023/09/07 04:33:03;;;;;;;11.13;9.85;;;15.90;99.90;;;;;;5025178;28;20038;-74
2023/09/07 04:35:30;;;;;;;10.38;9.27;;;15.80;99.90;;;;;;4960854;28;20129;-74
2023/09/07 04:37:56;;;;;;;10.27;8.77;;;15.80;99.90;;;;;;5013166;28;20538;-74
2023/09/07 04:40:24;;;;;;;13.25;10.48;;;15.80;99.90;;;;;;5026914;28;20048;-74
2023/09/07 04:42:49;;;;;;;10.07;9.18;;;15.80;99.90;;;;;;5012846;28;20042;-74
2023/09/07 04:45:15;;;;;;;12.15;9.77;;;15.70;99.90;;;;;;5021334;28;20122;-74
2023/09/07 04:47:41;;;;;;;13.80;10.05;;;15.70;99.90;;;;;;5032523;28;20066;-74
2023/09/07 04:50:07;;;;;;;10.60;9.50;;;15.70;99.90;;;;;;5007061;28;20132;-75
2023/09/07 04:52:34;;;;;;;11.00;9.90;;;15.70;99.90;;;;;;5054688;28;20483;-74
2023/09/07 04:55:00;;;;;;;10.18;9.20;;;15.70;99.90;;;;;;4995395;28;20081;-74
2023/09/07 04:57:26;;;;;;;10.45;9.38;;;15.60;99.90;;;;;;5010237;28;20037;-74
2023/09/07 04:59:52;;;;;;;10.52;8.90;;;15.70;99.90;;;;;;5007080;28;20407;-74
2023/09/07 05:02:18;;;;;;;10.93;9.07;;;15.60;99.90;;;;;;5024285;28;20042;-74
2023/09/07 05:04:44;;;;;;;10.50;9.48;;;15.60;99.90;;;;;;5026006;28;20145;-74
2023/09/07 05:07:09;;;;;;;10.70;9.50;;;15.60;99.90;;;;;;4993546;28;20664;-75
2023/09/07 05:09:35;;;;;;;11.02;9.77;;;15.60;99.90;;;;;;5005238;28;20049;-74
2023/09/07 05:12:01;;;;;;;10.88;9.77;;;15.60;99.90;;;;;;5012380;28;20042;-75
2023/09/07 05:14:27;;;;;;;12.98;10.52;;;15.60;99.90;;;;;;5018015;28;20121;-74
2023/09/07 05:16:52;;;;;;;11.10;9.88;;;15.60;99.90;;;;;;5016190;28;20095;-74
2023/09/07 05:19:18;;;;;;;10.82;9.48;;;15.60;99.90;;;;;;4996012;28;20045;-74
2023/09/07 05:21:44;;;;;;;10.55;9.45;;;15.60;99.90;;;;;;4994810;28;20373;-74
2023/09/07 05:24:13;;;;;;;13.55;11.30;;;15.60;99.90;;;;;;4973117;28;20585;-74
2023/09/07 05:26:39;;;;;;;12.57;11.05;;;15.60;99.90;;;;;;4992147;28;20049;-74
2023/09/07 05:29:04;;;;;;;11.45;10.35;;;15.60;99.90;;;;;;5046173;28;20033;-74
2023/09/07 05:31:30;;;;;;;11.07;9.48;;;15.60;99.90;;;;;;5030170;28;20080;-74
2023/09/07 05:33:56;;;;;;;11.57;10.43;;;15.60;99.90;;;;;;5013038;28;20421;-74
2023/09/07 05:36:21;;;;;;;11.98;10.70;;;15.60;99.90;;;;;;5025253;28;20052;-74
2023/09/07 05:38:47;;;;;;;13.48;10.85;;;15.60;99.90;;;;;;4996406;28;20510;-74
2023/09/07 05:41:13;;;;;;;11.48;10.38;;;15.60;99.90;;;;;;5000056;28;20042;-74
2023/09/07 05:43:38;;;;;;;15.02;10.98;;;15.70;99.90;;;;;;5046252;28;20524;-74
2023/09/07 05:46:04;;;;;;;12.35;10.35;;;15.70;99.90;;;;;;5028893;28;20034;-74
2023/09/07 05:48:30;;;;;;;11.82;10.73;;;15.70;99.90;;;;;;4993659;28;20487;-75
2023/09/07 05:50:56;;;;;;;12.68;11.48;;;15.70;99.90;;;;;;5010147;28;20401;-75
2023/09/07 05:53:24;;;;;;;14.43;10.80;;;15.70;99.90;;;;;;5021518;28;20628;-75
2023/09/07 05:55:50;;;;;;;13.30;11.38;;;15.80;99.90;;;;;;5002365;28;20088;-75
2023/09/07 05:58:15;;;;;;;11.75;10.55;;;15.80;99.90;;;;;;5034829;28;20089;-74
2023/09/07 06:00:41;;;;;;;13.75;11.13;;;15.80;99.90;;;;;;5027957;28;20080;-74
2023/09/07 06:03:10;;;;;;;12.95;11.52;;;15.80;99.90;;;;;;5033926;28;20053;-75
2023/09/07 06:05:38;;;;;;;13.65;12.35;;;15.80;99.90;;;;;;5004660;28;20050;-74
2023/09/07 06:08:06;;;;;;;13.43;11.45;;;15.90;99.90;;;;;;5024104;28;20041;-74
2023/09/07 06:10:32;;;;;;;16.02;10.82;;;15.90;99.90;;;;;;5004264;28;20038;-74
2023/09/07 06:12:58;;;;;;;13.23;11.70;;;15.90;99.90;;;;;;5022754;28;20440;-74
2023/09/07 06:15:24;;;;;;;13.57;12.18;;;16.00;99.90;;;;;;4997218;28;20073;-74
2023/09/07 06:17:49;;;;;;;13.52;11.05;;;16.00;99.90;;;;;;5009543;28;20124;-75
2023/09/07 06:20:16;;;;;;;13.13;11.68;;;16.00;99.90;;;;;;4998130;28;20536;-74
2023/09/07 06:22:41;;;;;;;14.20;11.55;;;16.10;99.90;;;;;;5010821;28;20038;-74
2023/09/07 06:25:07;;;;;;;13.43;12.02;;;16.10;99.90;;;;;;5011585;28;20065;-74
2023/09/07 06:27:33;;;;;;;14.32;12.73;;;16.20;99.90;;;;;;5043133;28;20077;-74
2023/09/07 06:29:59;;;;;;;14.60;11.98;;;16.20;99.90;;;;;;5002252;28;20124;-71
2023/09/07 06:32:25;;;;;;;14.82;11.90;;;16.20;99.90;;;;;;5043069;28;20052;-71
2023/09/07 06:34:51;;;;;;;14.32;11.73;;;16.30;99.90;;;;;;4987106;28;20040;-71
2023/09/07 06:37:18;;;;;;;12.65;11.23;;;16.40;99.90;;;;;;5044261;28;20073;-71
2023/09/07 06:39:43;;;;;;;14.02;12.52;;;16.40;99.90;;;;;;4987607;28;20053;-71
2023/09/07 06:42:12;;;;;;;14.13;12.50;;;16.50;99.90;;;;;;5003887;28;20101;-70
2023/09/07 06:44:38;;;;;;;13.55;12.15;;;16.60;99.90;;;;;;5005313;28;20121;-71
2023/09/07 06:47:04;;;;;;;14.50;12.95;;;16.60;99.90;;;;;;5011724;28;20466;-71
2023/09/07 06:49:30;;;;;;;13.00;11.77;;;16.70;99.90;;;;;;4977836;28;20041;-71
2023/09/07 06:51:57;;;;;;;14.82;12.20;;;16.70;99.90;;;;;;5007190;28;20048;-71
2023/09/07 06:54:23;;;;;;;14.65;12.55;;;16.80;99.90;;;;;;5037466;28;20073;-71
2023/09/07 06:56:48;;;;;;;13.63;12.23;;;16.90;99.90;;;;;;5010252;28;20239;-70
2023/09/07 06:59:15;;;;;;;16.13;12.27;;;17.00;99.90;;;;;;5013750;28;20038;-70
2023/09/07 07:01:41;;;;;;;13.32;11.82;;;17.10;99.90;;;;;;5012793;28;20060;-70
2023/09/07 07:04:08;;;;;;;14.90;11.82;;;17.10;99.90;;;;;;5012710;28;20490;-66
2023/09/07 07:06:34;;;;;;;12.18;10.93;;;17.20;99.90;;;;;;5012199;28;20507;-68
2023/09/07 07:08:59;;;;;;;12.77;11.43;;;17.30;99.90;;;;;;5011507;28;20049;-67
2023/09/07 07:11:25;;;;;;;12.18;10.95;;;17.40;99.90;;;;;;4980686;28;20049;-68
2023/09/07 07:13:51;;;;;;;13.57;11.25;;;17.60;99.90;;;;;;4982691;28;20037;-69
2023/09/07 07:16:17;;;;;;;16.30;11.60;;;17.70;99.90;;;;;;4998386;28;20399;-68
2023/09/07 07:18:42;;;;;;;15.45;12.13;;;17.80;99.90;;;;;;5000196;28;20099;-68
2023/09/07 07:21:09;;;;;;;13.68;10.90;;;18.00;99.90;;;;;;4997566;28;20503;-68
2023/09/07 07:23:36;;;;;;;13.15;11.35;;;18.10;99.90;;;;;;4995842;28;20484;-69
2023/09/07 07:26:02;;;;;;;12.60;11.30;;;18.30;99.90;;;;;;5009643;28;20096;-68
2023/09/07 07:28:27;;;;;;;15.65;10.88;;;18.40;99.90;;;;;;5021831;28;20046;-69
2023/09/07 07:30:53;;;;;;;10.88;9.77;;;18.70;99.90;;;;;;5009699;28;20048;-75
2023/09/07 07:33:20;;;;;;;12.15;10.73;;;19.00;99.90;;;;;;4994652;28;20076;-74
2023/09/07 07:35:46;;;;;;;9.48;8.52;;;19.30;99.90;;;;;;5021060;28;20060;-75
2023/09/07 07:38:15;;;;;;;11.55;9.52;;;19.60;99.90;;;;;;4988051;28;20049;-75
2023/09/07 07:40:42;;;;;;;12.68;8.35;;;19.80;99.90;;;;;;5034427;28;20593;-74
2023/09/07 07:43:10;;;;;;;11.55;7.93;;;20.20;99.90;;;;;;4992394;28;20128;-73
2023/09/07 07:45:38;;;;;;;12.98;8.20;;;20.40;99.90;;;;;;5005839;28;20514;-73
2023/09/07 07:48:07;;;;;;;11.43;8.27;;;20.60;99.90;;;;;;4990317;28;20116;-73
2023/09/07 07:50:38;;;;;;;10.13;8.18;;;20.90;99.90;;;;;;4987346;28;20533;-73
2023/09/07 07:53:04;;;;;;;8.20;7.35;;;21.10;99.90;;;;;;5020734;28;20042;-71
2023/09/07 07:55:29;;;;;;;12.30;8.70;;;21.30;99.90;;;;;;4992287;28;20817;-74
2023/09/07 07:57:55;;;;;;;7.80;7.00;;;21.60;99.90;;;;;;5001037;28;20562;-71
2023/09/07 08:00:21;;;;;;;7.70;6.90;;;21.80;99.90;;;;;;4997381;28;20450;-72
2023/09/07 08:02:47;;;;;;;7.43;6.60;;;21.90;99.90;;;;;;5012710;28;20049;-72
2023/09/07 08:05:13;;;;;;;8.07;6.72;;;22.00;99.90;;;;;;5013271;28;20525;-74
2023/09/07 08:07:38;;;;;;;8.50;6.78;;;22.20;99.90;;;;;;4997752;28;20039;-74
2023/09/07 08:10:04;;;;;;;11.38;6.80;;;22.20;99.90;;;;;;5010493;28;20104;-75
2023/09/07 08:12:31;;;;;;;8.75;6.45;;;22.30;99.90;;;;;;4995697;28;20119;-74
2023/09/07 08:14:57;;;;;;;8.88;6.43;;;22.40;99.90;;;;;;4982651;28;20041;-73
2023/09/07 08:17:24;;;;;;;9.93;6.30;;;22.50;99.90;;;;;;4992605;28;20065;-74
2023/09/07 08:19:55;;;;;;;7.85;6.32;;;22.70;99.90;;;;;;4992008;28;20560;-74
2023/09/07 08:22:20;;;;;;;8.00;5.45;;;22.80;99.90;;;;;;5035999;28;20076;-74
2023/09/07 08:24:48;;;;;;;12.63;6.15;;;23.00;99.90;;;;;;5011001;28;20046;-74
2023/09/07 08:27:18;;;;;;;6.45;5.53;;;23.10;99.90;;;;;;5001469;28;20092;-73
2023/09/07 08:29:48;;;;;;;7.40;5.63;;;23.30;99.90;;;;;;5005455;28;20074;-72
2023/09/07 08:32:14;;;;;;;7.25;5.95;;;23.50;99.90;;;;;;5006975;28;20104;-72
2023/09/07 08:34:41;;;;;;;13.55;5.53;;;23.60;99.90;;;;;;5006362;28;20124;-73
2023/09/07 08:37:10;;;;;;;12.93;6.22;;;23.80;99.90;;;;;;5003091;28;20050;-72
2023/09/07 08:39:36;;;;;;;6.47;5.78;;;23.80;99.90;;;;;;4992597;28;20053;-72
2023/09/07 08:42:02;;;;;;;8.10;5.43;;;23.90;99.90;;;;;;5006884;28;20544;-72
2023/09/07 08:44:30;;;;;;;6.95;5.28;;;24.00;99.90;;;;;;5003633;28;20037;-72
2023/09/07 08:46:59;;;;;;;6.35;5.57;;;24.10;99.90;;;;;;5004101;28;20073;-72
2023/09/07 08:49:26;;;;;;;7.00;5.22;;;24.30;99.90;;;;;;5004236;28;20049;-73
2023/09/07 08:51:54;;;;;;;7.30;5.25;;;24.40;99.90;;;;;;5021894;28;20049;-73
2023/09/07 08:54:20;;;;;;;8.13;4.72;;;24.50;99.90;;;;;;4990328;28;20038;-73
2023/09/07 08:56:47;;;;;;;8.13;5.35;;;24.60;99.90;;;;;;5001936;28;20076;-72
2023/09/07 08:59:13;;;;;;;6.20;5.22;;;24.80;99.90;;;;;;4973142;28;20083;-72
2023/09/07 09:01:39;;;;;;;7.93;4.85;;;24.90;99.90;;;;;;5009411;28;20029;-72
2023/09/07 09:04:05;;;;;;;6.93;4.82;;;25.00;99.90;;;;;;5008714;28;20042;-72
2023/09/07 09:06:31;;;;;;;6.63;5.40;;;25.10;99.90;;;;;;5008631;28;20145;-73
2023/09/07 09:08:57;;;;;;;6.03;5.40;;;25.20;99.90;;;;;;5024402;28;20112;-74
2023/09/07 09:11:24;;;;;;;5.60;4.80;;;25.40;99.90;;;;;;5012728;28;20451;-72
2023/09/07 09:13:53;;;;;;;8.43;5.00;;;25.50;99.90;;;;;;5011203;28;20263;-73
2023/09/07 09:16:20;;;;;;;9.95;4.78;;;25.50;99.90;;;;;;5011965;28;20080;-72
2023/09/07 09:18:55;;;;;;;6.88;4.72;;;25.60;99.90;;;;;;5043997;28;20120;-73
2023/09/07 09:21:22;;;;;;;6.35;4.60;;;25.70;99.90;;;;;;5041235;28;20040;-73
2023/09/07 09:23:50;;;;;;;6.57;4.78;;;25.80;99.90;;;;;;5009360;28;20041;-69
2023/09/07 09:26:16;;;;;;;8.45;4.30;;;25.80;99.90;;;;;;5025209;28;20141;-69
2023/09/07 09:28:43;;;;;;;5.63;4.80;;;25.90;99.90;;;;;;5025609;28;20570;-69
2023/09/07 09:31:12;;;;;;;5.07;4.60;;;26.00;99.90;;;;;;5005306;28;20041;-70
2023/09/07 09:33:41;;;;;;;8.18;4.90;;;26.10;99.90;;;;;;5007514;28;20050;-70
2023/09/07 09:36:08;;;;;;;10.68;4.22;;;26.20;99.90;;;;;;4996893;28;20083;-70
2023/09/07 09:38:34;;;;;;;12.13;4.60;;;26.30;99.90;;;;;;5010402;28;20041;-70
2023/09/07 09:41:01;;;;;;;8.48;4.38;;;26.30;99.90;;;;;;5012148;28;20037;-70
2023/09/07 09:43:29;;;;;;;7.43;5.20;;;26.40;99.90;;;;;;5024576;28;20049;-69
2023/09/07 09:45:56;;;;;;;7.53;4.85;;;26.50;99.90;;;;;;5009814;28;20038;-70
2023/09/07 09:48:22;;;;;;;7.88;4.35;;;26.50;99.90;;;;;;4982230;28;20117;-70
2023/09/07 09:50:50;;;;;;;9.77;4.45;;;26.60;99.90;;;;;;4981438;28;20126;-70
2023/09/07 09:53:18;;;;;;;5.97;4.72;;;26.80;99.90;;;;;;5014899;28;20089;-70
2023/09/07 09:55:48;;;;;;;7.65;4.55;;;26.80;99.90;;;;;;5009386;28;20070;-70
2023/09/07 09:58:15;;;;;;;6.18;4.50;;;26.90;99.90;;;;;;4997527;28;20091;-70
2023/09/07 10:00:47;;;;;;;7.95;4.53;;;27.00;99.80;;;;;;5006429;28;20494;-69
2023/09/07 10:03:28;;;;;;;5.97;4.43;;;27.10;99.80;;;;;;5038179;28;20049;-72
2023/09/07 10:05:54;;;;;;;11.30;4.82;;;27.20;98.50;;;;;;4988146;28;20035;-72
2023/09/07 10:08:22;;;;;;;6.03;4.47;;;27.30;99.20;;;;;;5023695;28;20037;-72
2023/09/07 10:10:49;;;;;;;5.25;4.60;;;27.30;98.00;;;;;;5025586;28;20116;-71
2023/09/07 10:13:16;;;;;;;6.55;4.65;;;27.40;98.40;;;;;;5034022;28;20030;-72
2023/09/07 10:15:43;;;;;;;6.18;4.63;;;27.50;98.60;;;;;;5011256;28;20049;-72
2023/09/07 10:18:14;;;;;;;6.70;4.15;;;27.60;98.10;;;;;;5000191;28;20034;-71
2023/09/07 10:21:09;;;;;;;9.27;4.25;;;27.60;97.80;;;;;;5018657;28;20101;-71
2023/09/07 10:23:40;;;;;;;6.43;4.85;;;27.80;98.00;;;;;;5005526;28;21482;-72
2023/09/07 10:26:11;;;;;;;10.57;4.23;;;27.90;98.00;;;;;;5002216;28;20456;-72
2023/09/07 10:28:37;;;;;;;10.43;5.10;;;28.10;97.40;;;;;;4999663;28;20304;-71
2023/09/07 10:31:13;;;;;;;6.70;4.70;;;28.40;97.00;;;;;;4999569;28;20038;-72
2023/09/07 10:33:39;;;;;;;13.30;4.30;;;28.60;96.70;;;;;;4992546;28;20038;-71
2023/09/07 10:36:06;;;;;;;7.18;3.95;;;28.60;97.50;;;;;;5008539;28;20061;-71
2023/09/07 10:38:35;;;;;;;9.73;4.20;;;28.70;97.10;;;;;;5007410;28;20147;-74
2023/09/07 10:41:03;;;;;;;8.40;3.85;;;28.70;97.00;;;;;;5003794;28;20049;-72
2023/09/07 10:43:33;;;;;;;9.90;4.30;;;28.70;96.30;;;;;;5009126;28;21730;-72
2023/09/07 10:46:00;;;;;;;7.72;4.55;;;28.70;95.50;;;;;;5006259;28;20033;-72
2023/09/07 10:48:29;;;;;;;6.88;4.40;;;28.70;95.60;;;;;;5006023;28;20046;-72
2023/09/07 10:50:56;;;;;;;4.82;4.18;;;28.60;95.60;;;;;;5033285;28;20175;-78
2023/09/07 10:53:27;;;;;;;9.98;4.47;;;28.60;95.40;;;;;;4990152;28;20234;-77
2023/09/07 10:55:55;;;;;;;7.70;4.15;;;28.70;94.80;;;;;;4990665;28;20120;-79
2023/09/07 10:58:29;;;;;;;6.00;3.97;;;28.80;96.00;;;;;;5005117;28;20088;-79
2023/09/07 11:00:56;;;;;;;7.93;4.88;;;28.90;94.20;;;;;;5001907;28;20499;-79
2023/09/07 11:03:22;;;;;;;14.32;4.40;;;29.00;95.10;;;;;;5005786;28;20045;-78
2023/09/07 11:05:50;;;;;;;6.22;4.30;;;29.00;95.20;;;;;;5007927;28;20042;-78
2023/09/07 11:08:16;;;;;;;8.55;4.70;;;29.10;95.00;;;;;;5008421;28;20045;-80
2023/09/07 11:10:42;;;;;;;36.88;28.92;;;29.20;94.30;;;;;;4993419;28;20042;-76
2023/09/07 11:13:09;;;;;;;12.43;9.05;;;29.20;94.20;;;;;;5010849;28;20029;-79
2023/09/07 11:15:35;;;;;;;6.78;3.83;;;29.20;93.40;;;;;;5010265;28;20072;-78
2023/09/07 11:18:07;;;;;;;6.72;3.80;;;29.20;93.00;;;;;;5009764;28;20095;-78
2023/09/07 11:20:35;;;;;;;5.50;3.83;;;29.30;92.30;;;;;;5008299;28;20042;-79
2023/09/07 11:23:01;;;;;;;8.32;3.97;;;29.30;92.60;;;;;;5010771;28;20399;-78
2023/09/07 11:25:33;;;;;;;9.27;4.25;;;29.40;93.10;;;;;;4991862;28;20756;-76
2023/09/07 11:27:58;;;;;;;15.13;4.10;;;29.50;93.30;;;;;;5013891;28;20049;-77
2023/09/07 11:30:24;;;;;;;5.38;3.85;;;29.60;93.80;;;;;;5009444;28;20044;-75
2023/09/07 11:32:50;;;;;;;9.63;4.40;;;29.70;93.60;;;;;;5008612;28;20054;-74
2023/09/07 11:35:16;;;;;;;9.85;4.50;;;29.80;93.50;;;;;;5010768;28;20045;-72
2023/09/07 11:37:42;;;;;;;7.65;4.18;;;29.90;93.50;;;;;;4994597;28;20077;-74
2023/09/07 11:40:12;;;;;;;7.30;4.28;;;29.90;93.00;;;;;;5008215;28;20044;-76
2023/09/07 11:42:38;;;;;;;11.60;5.28;;;29.90;92.50;;;;;;5028099;28;20056;-72
2023/09/07 11:45:07;;;;;;;5.68;3.78;;;30.00;92.80;;;;;;4992078;28;20042;-74
2023/09/07 11:47:34;;;;;;;10.52;4.38;;;29.90;91.50;;;;;;5009845;28;20064;-76
2023/09/07 11:50:00;;;;;;;13.07;4.53;;;29.90;91.60;;;;;;4996175;28;20116;-75
2023/09/07 11:52:26;;;;;;;16.70;4.03;;;29.90;91.50;;;;;;5011252;28;20137;-76
2023/09/07 11:54:52;;;;;;;9.77;4.05;;;29.90;91.60;;;;;;5022813;28;20075;-75
2023/09/07 11:57:18;;;;;;;11.90;4.05;;;29.90;91.60;;;;;;5023768;28;20495;-76
2023/09/07 11:59:43;;;;;;;12.32;7.80;;;29.90;91.50;;;;;;5010401;28;20380;-74
2023/09/07 12:02:12;;;;;;;5.55;4.95;;;29.90;91.20;;;;;;4990598;28;20034;-78
2023/09/07 12:04:38;;;;;;;9.07;4.38;;;29.90;91.20;;;;;;5024994;28;20125;-77
2023/09/07 12:07:04;;;;;;;5.68;4.28;;;30.00;91.10;;;;;;5006631;28;20113;-76
2023/09/07 12:09:30;;;;;;;9.27;4.05;;;30.00;91.30;;;;;;5007712;28;20041;-75
2023/09/07 12:11:55;;;;;;;4.60;3.85;;;30.00;90.80;;;;;;5009511;28;20038;-76
2023/09/07 12:14:22;;;;;;;7.65;3.95;;;30.00;91.00;;;;;;5017719;28;20111;-76
2023/09/07 12:16:48;;;;;;;7.35;4.57;;;30.00;91.10;;;;;;5026094;28;20034;-76
2023/09/07 12:19:14;;;;;;;4.60;4.07;;;30.20;91.50;;;;;;5025803;28;20049;-73
2023/09/07 12:21:41;;;;;;;7.40;4.65;;;30.20;91.80;;;;;;5021970;28;20042;-77
2023/09/07 12:24:08;;;;;;;8.20;4.60;;;30.30;91.80;;;;;;4992656;28;20049;-77
2023/09/07 12:26:33;;;;;;;5.85;4.40;;;30.30;91.70;;;;;;5003529;28;20105;-78
2023/09/07 12:29:00;;;;;;;6.95;4.35;;;30.40;91.30;;;;;;4970342;28;20504;-77
2023/09/07 12:31:26;;;;;;;9.13;4.32;;;30.40;91.10;;;;;;5039283;28;20031;-78
2023/09/07 12:33:51;;;;;;;6.28;3.88;;;30.40;91.20;;;;;;5007135;28;20113;-78
2023/09/07 12:36:17;;;;;;;5.85;4.57;;;30.50;90.90;;;;;;4996485;28;20177;-78
2023/09/07 12:38:43;;;;;;;7.10;3.70;;;30.50;91.50;;;;;;4998452;28;20049;-78